Terminal Aerodrome Forecast
Issued by NWS Tampa Bay Area, FL

Home | Current Version | Previous Version | Text Only | Print | Product List | Glossary On
Versions: 1 2 3 4 5 6 7 8 9 10 11 12 13 14 15 16 17 18 19 20
000
FTUS42 KTBW 251100 AAA
TAFSRQ
TAF AMD
KSRQ 251144Z 2512/2612 36007KT P6SM SCT020 BKN050
     FM252300 01004KT P6SM FEW090 SCT250
     FM260700 05008KT P6SM FEW045 SCT250
     FM261000 06008KT P6SM BKN045=

USA.gov is the U.S. government's official web portal to all federal, state and local government web resources and services.